Starship II — WDD7601 — position and weather

sailwx.info

Track history (hours):
 
Tides and Currents Weather Stations Pressure Air Temp Water Temp Dewpoint Dewpoint Depression Visibility Wind Speed Wind Dir Waves Ship Positions

Starship II

Owner: Starship Cruise Lines, Tampa, FL. More information available from US FCC via Universal Licensing System and Coast Guard Vessel Documentation Center.

Last reported at 2018-Feb-25 13:28 UTC. Time now 2018-Feb-25 13:38 UTC.
Position N 27°57' W 082°27'.

MMSI: 367188610.

Date/timePositionNaut miles runAvg speedWind from/ knotsBaromVisibWave heightAir tempDewpointWater temp
2018-Feb-25 13:28N 27°57' W 082°27'0 0.0
2018-Feb-25 12:55N 27°57' W 082°27'0 0.1
2018-Feb-25 12:30N 27°57' W 082°27'0 0.0
2018-Feb-25 11:56N 27°57' W 082°27'0 0.0
2018-Feb-25 11:29N 27°57' W 082°27'0 0.0
2018-Feb-25 10:59N 27°57' W 082°27'0 0.0
2018-Feb-25 10:30N 27°57' W 082°27'0 0.0
2018-Feb-25 09:58N 27°57' W 082°27'0 0.0
2018-Feb-25 09:29N 27°57' W 082°27'0 0.0
2018-Feb-25 08:56N 27°57' W 082°27'0 0.0
2018-Feb-25 08:29N 27°57' W 082°27'0 0.0
2018-Feb-25 07:59N 27°57' W 082°27'0 0.0
2018-Feb-25 07:27N 27°57' W 082°27'0 0.0
2018-Feb-25 07:00N 27°57' W 082°27'2 3.6
2018-Feb-25 06:30N 27°55' W 082°27'2 4.1
2018-Feb-25 05:55N 27°53' W 082°29'0 0.9
2018-Feb-25 05:30N 27°53' W 082°28'3 5.0
2018-Feb-25 04:58N 27°56' W 082°27'1 1.3
2018-Feb-25 04:28N 27°56' W 082°27'0 0.0
2018-Feb-25 03:59N 27°56' W 082°27'0 0.0
2018-Feb-25 03:29N 27°56' W 082°27'0 0.0
2018-Feb-25 02:59N 27°56' W 082°27'0 0.0
2018-Feb-25 02:29N 27°56' W 082°27'0 0.2
2018-Feb-25 02:00N 27°56' W 082°27'0 0.8
2018-Feb-25 01:30N 27°57' W 082°27'0 0.0
2018-Feb-25 00:58N 27°57' W 082°27'0 0.0
2018-Feb-25 00:28N 27°57' W 082°27'1 2.2
2018-Feb-25 00:01N 27°55' W 082°27'0 0.2
2018-Feb-24 23:30N 27°55' W 082°27'2 3.8
2018-Feb-24 23:00N 27°53' W 082°27'2 4.1
2018-Feb-24 22:30N 27°56' W 082°27'1 1.8
2018-Feb-24 21:58N 27°57' W 082°27'0 0.0
2018-Feb-24 21:28N 27°57' W 082°27'0 0.0
2018-Feb-24 20:58N 27°57' W 082°27'0 0.0
2018-Feb-24 20:28N 27°57' W 082°27'0 0.0
2018-Feb-24 20:00N 27°57' W 082°27'0 0.0
2018-Feb-24 19:29N 27°57' W 082°27'0 0.0
2018-Feb-24 18:59N 27°57' W 082°27'0 0.0
2018-Feb-24 18:28N 27°57' W 082°27'0 0.0
2018-Feb-24 17:58N 27°57' W 082°27'0 0.0
2018-Feb-24 17:25N 27°57' W 082°27'0 0.0
2018-Feb-24 16:58N 27°57' W 082°27'0 0.0
2018-Feb-24 16:29N 27°57' W 082°27'0 0.0
2018-Feb-24 15:58N 27°57' W 082°27'0 0.0
2018-Feb-24 15:30N 27°57' W 082°27'0 0.0
2018-Feb-24 14:59N 27°57' W 082°27'0 0.0
2018-Feb-24 14:29N 27°57' W 082°27'0 0.0
2018-Feb-24 13:58N 27°57' W 082°27'0 0.0
2018-Feb-24 13:28N 27°57' W 082°27'0 0.0
2018-Feb-24 13:00N 27°57' W 082°27'0 0.0
2018-Feb-24 12:28N 27°57' W 082°27'0 0.0
2018-Feb-24 11:56N 27°57' W 082°27'0 0.0
2018-Feb-24 11:29N 27°57' W 082°27'0 0.0
2018-Feb-24 11:00N 27°57' W 082°27'0 0.0
2018-Feb-24 10:30N 27°57' W 082°27'0 0.0
2018-Feb-24 09:59N 27°57' W 082°27'0 0.0
2018-Feb-24 09:29N 27°57' W 082°27'0 0.0
2018-Feb-24 08:59N 27°57' W 082°27'0 0.0
2018-Feb-24 08:29N 27°57' W 082°27'0 0.0
2018-Feb-24 07:58N 27°57' W 082°27'0 0.0
2018-Feb-24 07:26N 27°57' W 082°27'0 0.0
2018-Feb-24 06:59N 27°57' W 082°27'0 0.0
2018-Feb-24 06:29N 27°57' W 082°27'0 0.0
2018-Feb-24 05:58N 27°57' W 082°27'0 0.0
2018-Feb-24 05:29N 27°57' W 082°27'0 0.0
2018-Feb-24 04:58N 27°57' W 082°27'0 0.0
2018-Feb-24 04:29N 27°57' W 082°27'0 0.0
2018-Feb-24 04:00N 27°57' W 082°27'0 0.0
2018-Feb-24 03:24N 27°57' W 082°27'0 0.0
2018-Feb-24 03:00N 27°57' W 082°27'0 0.0
2018-Feb-24 02:29N 27°57' W 082°27'0 0.0
2018-Feb-24 01:59N 27°57' W 082°27'0 0.0
2018-Feb-24 01:29N 27°57' W 082°27'0 0.0
2018-Feb-24 00:54N 27°57' W 082°27'0 0.0
2018-Feb-24 00:30N 27°57' W 082°27'0 0.0
2018-Feb-23 23:58N 27°57' W 082°27'0 0.0
2018-Feb-23 23:29N 27°57' W 082°27'0 0.0
2018-Feb-23 23:00N 27°57' W 082°27'0 0.0
2018-Feb-23 22:30N 27°57' W 082°27'0 0.0
2018-Feb-23 22:00N 27°57' W 082°27'0 0.0
2018-Feb-23 21:30N 27°57' W 082°27'0 0.0
2018-Feb-23 21:00N 27°57' W 082°27'0 0.0
2018-Feb-23 20:29N 27°57' W 082°27'0 0.0
2018-Feb-23 19:55N 27°57' W 082°27'0 0.0
2018-Feb-23 19:28N 27°57' W 082°27'0 0.0
2018-Feb-23 18:58N 27°57' W 082°27'0 0.0
2018-Feb-23 18:27N 27°57' W 082°27'0 0.0
2018-Feb-23 18:00N 27°57' W 082°27'0 0.0
2018-Feb-23 17:29N 27°57' W 082°27'0 0.0
2018-Feb-23 17:00N 27°57' W 082°27'0 0.0
2018-Feb-23 16:30N 27°57' W 082°27'0 0.0
2018-Feb-23 16:00N 27°57' W 082°27'0 0.0
2018-Feb-23 15:30N 27°57' W 082°27'0 0.0
2018-Feb-23 14:54N 27°57' W 082°27'0 0.0
2018-Feb-23 14:30N 27°57' W 082°27'0 0.0
2018-Feb-23 14:00N 27°57' W 082°27'0 0.0
2018-Feb-23 13:30N 27°57' W 082°27'0 0.0
2018-Feb-23 12:58N 27°57' W 082°27'0 0.0
2018-Feb-23 12:28N 27°57' W 082°27'0 0.0
2018-Feb-23 12:00N 27°57' W 082°27'0 0.0
2018-Feb-23 11:30N 27°57' W 082°27'0 0.0
2018-Feb-23 11:00N 27°57' W 082°27'0 0.0
2018-Feb-23 10:27N 27°57' W 082°27'0 0.0
2018-Feb-23 10:00N 27°57' W 082°27'0 0.0
2018-Feb-23 09:30N 27°57' W 082°27'0 0.0
2018-Feb-23 08:58N 27°57' W 082°27'0 0.0
2018-Feb-23 08:29N 27°57' W 082°27'0 0.0
2018-Feb-23 07:58N 27°57' W 082°27'0 0.0
2018-Feb-23 07:28N 27°57' W 082°27'0 0.0
2018-Feb-23 06:58N 27°57' W 082°27'0 0.0
2018-Feb-23 06:28N 27°57' W 082°27'0 0.0
2018-Feb-23 05:59N 27°57' W 082°27'0 0.0
2018-Feb-23 05:28N 27°57' W 082°27'0 0.0
2018-Feb-23 04:58N 27°57' W 082°27'0 0.0
2018-Feb-23 04:28N 27°57' W 082°27'0 0.0
2018-Feb-23 03:58N 27°57' W 082°27'0 0.0
2018-Feb-23 03:28N 27°57' W 082°27'0 0.0
2018-Feb-23 03:00N 27°57' W 082°27'0 0.0
2018-Feb-23 02:30N 27°57' W 082°27'1 1.8
2018-Feb-23 02:00N 27°56' W 082°27'1 1.7
2018-Feb-23 01:30N 27°55' W 082°27'1 1.4
2018-Feb-23 01:00N 27°54' W 082°27'0 0.5
2018-Feb-23 00:30N 27°54' W 082°27'2 4.2
2018-Feb-23 00:00N 27°56' W 082°27'0 0.3
2018-Feb-22 23:30N 27°57' W 082°27'0 0.0
2018-Feb-22 22:57N 27°57' W 082°27'0 0.0
2018-Feb-22 22:30N 27°57' W 082°27'0 0.0
2018-Feb-22 22:00N 27°57' W 082°27'0 0.0
2018-Feb-22 21:28N 27°57' W 082°27'0 0.0
2018-Feb-22 20:58N 27°57' W 082°27'0 0.0
2018-Feb-22 20:30N 27°57' W 082°27'0 0.0
2018-Feb-22 20:00N 27°57' W 082°27'0 0.0
2018-Feb-22 19:27N 27°57' W 082°27'0 0.0
2018-Feb-22 19:00N 27°57' W 082°27'0 0.0
2018-Feb-22 18:30N 27°57' W 082°27'0 0.0
2018-Feb-22 18:00N 27°57' W 082°27'0 0.0
2018-Feb-22 17:29N 27°57' W 082°27'0 0.0
2018-Feb-22 16:59N 27°57' W 082°27'0 0.0
2018-Feb-22 16:29N 27°57' W 082°27'0 0.0
2018-Feb-22 15:59N 27°57' W 082°27'0 0.0
2018-Feb-22 15:30N 27°57' W 082°27'0 0.0
2018-Feb-22 15:00N 27°57' W 082°27'0 0.0
2018-Feb-22 14:29N 27°57' W 082°27'0 0.0
2018-Feb-22 14:00N 27°57' W 082°27'0 0.0
2018-Feb-22 13:30N 27°57' W 082°27'0 0.0
2018-Feb-22 12:50N 27°57' W 082°27'0 0.0
2018-Feb-22 12:30N 27°57' W 082°27'0 0.0
2018-Feb-22 12:00N 27°57' W 082°27'0 0.0
2018-Feb-22 11:29N 27°57' W 082°27'0 0.0
2018-Feb-22 10:59N 27°57' W 082°27'0 0.0
2018-Feb-22 10:29N 27°57' W 082°27'0 0.0
2018-Feb-22 09:56N 27°57' W 082°27'0 0.0
2018-Feb-22 09:29N 27°57' W 082°27'0 0.0
2018-Feb-22 08:56N 27°57' W 082°27'0 0.0
2018-Feb-22 08:26N 27°57' W 082°27'0 0.0
2018-Feb-22 07:59N 27°57' W 082°27'0 0.0
2018-Feb-22 07:29N 27°57' W 082°27'0 0.0
2018-Feb-22 07:00N 27°57' W 082°27'0 0.0
2018-Feb-22 06:29N 27°57' W 082°27'0 0.0
2018-Feb-22 05:58N 27°57' W 082°27'0 0.0
2018-Feb-22 05:30N 27°57' W 082°27'0 0.0
2018-Feb-22 05:00N 27°57' W 082°27'0 0.0
2018-Feb-22 04:30N 27°57' W 082°27'0 0.0
2018-Feb-22 03:57N 27°57' W 082°27'0 0.0
2018-Feb-22 03:30N 27°57' W 082°27'0 0.0
2018-Feb-22 03:00N 27°57' W 082°27'0 0.0
2018-Feb-22 02:27N 27°57' W 082°27'0 0.0
2018-Feb-22 01:59N 27°57' W 082°27'0 0.0
2018-Feb-22 01:29N 27°57' W 082°27'0 0.0
2018-Feb-22 01:00N 27°57' W 082°27'0 0.0
2018-Feb-22 00:28N 27°57' W 082°27'0 0.0
2018-Feb-21 23:59N 27°57' W 082°27'0 0.0
2018-Feb-21 23:29N 27°57' W 082°27'0 0.0
2018-Feb-21 22:59N 27°57' W 082°27'0 0.0
2018-Feb-21 22:29N 27°57' W 082°27'0 0.0
2018-Feb-21 21:59N 27°57' W 082°27'0 0.0
2018-Feb-21 21:26N 27°57' W 082°27'0 0.0
2018-Feb-21 20:54N 27°57' W 082°27'0 0.0
2018-Feb-21 20:29N 27°57' W 082°27'0 0.0
2018-Feb-21 19:56N 27°57' W 082°27'0 0.0
2018-Feb-21 19:29N 27°57' W 082°27'0 0.0
2018-Feb-21 18:59N 27°57' W 082°27'0 0.0
2018-Feb-21 18:29N 27°57' W 082°27'0 0.0
2018-Feb-21 17:59N 27°57' W 082°27'0 0.0
2018-Feb-21 17:29N 27°57' W 082°27'0 0.0
2018-Feb-21 16:59N 27°57' W 082°27'0 0.0
2018-Feb-21 16:29N 27°57' W 082°27'0 0.0
2018-Feb-21 16:00N 27°57' W 082°27'0 0.0
2018-Feb-21 15:30N 27°57' W 082°27'0 0.0
2018-Feb-21 15:00N 27°57' W 082°27'0 0.0
2018-Feb-21 14:28N 27°57' W 082°27'0 0.0
2018-Feb-21 14:00N 27°57' W 082°27'0 0.0
2018-Feb-21 13:30N 27°57' W 082°27'0 0.0
2018-Feb-21 13:00N 27°57' W 082°27'0 0.0
2018-Feb-21 12:28N 27°57' W 082°27'0 0.0
2018-Feb-21 11:58N 27°57' W 082°27'0 0.0
2018-Feb-21 11:28N 27°57' W 082°27'0 0.0
2018-Feb-21 10:58N 27°57' W 082°27'0 0.0
2018-Feb-21 10:23N 27°57' W 082°27'0 0.0
2018-Feb-21 09:59N 27°57' W 082°27'0 0.0
2018-Feb-21 09:30N 27°57' W 082°27'0 0.0
2018-Feb-21 09:00N 27°57' W 082°27'0 0.0
2018-Feb-21 08:29N 27°57' W 082°27'0 0.0
2018-Feb-21 08:00N 27°57' W 082°27'0 0.0
2018-Feb-21 07:29N 27°57' W 082°27'0 0.0
2018-Feb-21 06:59N 27°57' W 082°27'0 0.0
2018-Feb-21 06:29N 27°57' W 082°27'0 0.0
2018-Feb-21 05:59N 27°57' W 082°27'0 0.0
2018-Feb-21 05:25N 27°57' W 082°27'0 0.0
2018-Feb-21 04:55N 27°57' W 082°27'0 0.0
2018-Feb-21 04:30N 27°57' W 082°27'0 0.0
2018-Feb-21 03:58N 27°57' W 082°27'0 0.0
2018-Feb-21 03:28N 27°57' W 082°27'0 0.0
2018-Feb-21 03:00N 27°57' W 082°27'0 0.0
2018-Feb-21 02:30N 27°57' W 082°27'0 0.0
2018-Feb-21 02:00N 27°57' W 082°27'0 0.0
2018-Feb-21 01:25N 27°57' W 082°27'0 0.0
2018-Feb-21 01:00N 27°57' W 082°27'0 0.0
2018-Feb-21 00:28N 27°57' W 082°27'0 0.0
2018-Feb-20 23:58N 27°57' W 082°27'0 0.0
2018-Feb-20 23:25N 27°57' W 082°27'0 0.0
2018-Feb-20 22:58N 27°57' W 082°27'0 0.0
2018-Feb-20 22:28N 27°57' W 082°27'0 0.0
2018-Feb-20 21:58N 27°57' W 082°27'0 0.0
2018-Feb-20 21:30N 27°57' W 082°27'0 0.0
2018-Feb-20 20:59N 27°57' W 082°27'0 0.0
2018-Feb-20 20:23N 27°57' W 082°27'0 0.0
2018-Feb-20 19:59N 27°57' W 082°27'0 0.0
2018-Feb-20 19:26N 27°57' W 082°27'0 0.0
2018-Feb-20 18:59N 27°57' W 082°27'0 0.0
2018-Feb-20 18:29N 27°57' W 082°27'0 0.0
2018-Feb-20 17:59N 27°57' W 082°27'0 0.0
2018-Feb-20 17:29N 27°57' W 082°27'0 0.0
2018-Feb-20 17:00N 27°57' W 082°27'0 0.0
2018-Feb-20 16:28N 27°57' W 082°27'0 0.0
2018-Feb-20 16:00N 27°57' W 082°27'0 0.0
2018-Feb-20 15:29N 27°57' W 082°27'0 0.0
2018-Feb-20 14:54N 27°57' W 082°27'0 0.0
2018-Feb-20 14:30N 27°57' W 082°27'0 0.0
2018-Feb-20 13:59N 27°57' W 082°27'0 0.0
2018-Feb-20 13:29N 27°57' W 082°27'0 0.0
2018-Feb-20 12:59N 27°57' W 082°27'0 0.0
2018-Feb-20 12:28N 27°57' W 082°27'0 0.0
2018-Feb-20 11:49N 27°57' W 082°27'0 0.0
2018-Feb-20 11:28N 27°57' W 082°27'0 0.0
2018-Feb-20 10:59N 27°57' W 082°27'0 0.0
2018-Feb-20 10:29N 27°57' W 082°27'0 0.0
2018-Feb-20 09:59N 27°57' W 082°27'0 0.0
2018-Feb-20 09:29N 27°57' W 082°27'0 0.0
2018-Feb-20 08:59N 27°57' W 082°27'0 0.0
2018-Feb-20 08:29N 27°57' W 082°27'0 0.0
2018-Feb-20 08:00N 27°57' W 082°27'0 0.0
2018-Feb-20 07:30N 27°57' W 082°27'0 0.0
2018-Feb-20 07:00N 27°57' W 082°27'0 0.0
2018-Feb-20 06:30N 27°57' W 082°27'0 0.0
2018-Feb-20 05:59N 27°57' W 082°27'0 0.0
2018-Feb-20 05:30N 27°57' W 082°27'0 0.0
2018-Feb-20 05:00N 27°57' W 082°27'0 0.0
2018-Feb-20 04:30N 27°57' W 082°27'0 0.0
2018-Feb-20 03:59N 27°57' W 082°27'0 0.0
2018-Feb-20 03:28N 27°57' W 082°27'0 0.0
2018-Feb-20 02:58N 27°57' W 082°27'0 0.0
2018-Feb-20 02:26N 27°57' W 082°27'0 0.0
2018-Feb-20 01:59N 27°57' W 082°27'0 0.0
2018-Feb-20 01:28N 27°57' W 082°27'0 0.0
2018-Feb-20 00:58N 27°57' W 082°27'0 0.0
2018-Feb-20 00:29N 27°57' W 082°27'0 0.0
2018-Feb-19 23:58N 27°57' W 082°27'0 0.0
2018-Feb-19 23:28N 27°57' W 082°27'0 0.0
2018-Feb-19 22:58N 27°57' W 082°27'0 0.0
2018-Feb-19 22:26N 27°57' W 082°27'0 0.0
2018-Feb-19 21:59N 27°57' W 082°27'0 0.0
2018-Feb-19 21:23N 27°57' W 082°27'0 0.0
2018-Feb-19 20:57N 27°57' W 082°27'0 0.0
2018-Feb-19 20:30N 27°57' W 082°27'0 0.0
2018-Feb-19 19:59N 27°57' W 082°27'0 0.0
2018-Feb-19 19:26N 27°57' W 082°27'0 0.0
2018-Feb-19 19:00N 27°57' W 082°27'0 0.0
2018-Feb-19 18:30N 27°57' W 082°27'0 0.0
2018-Feb-19 17:58N 27°57' W 082°27'0 0.0
2018-Feb-19 17:28N 27°57' W 082°27'0 0.0
2018-Feb-19 16:53N 27°57' W 082°27'0 0.0
2018-Feb-19 16:29N 27°57' W 082°27'0 0.0
2018-Feb-19 15:59N 27°57' W 082°27'0 0.0
2018-Feb-19 15:29N 27°57' W 082°27'0 0.0
2018-Feb-19 14:57N 27°57' W 082°27'0 0.0
2018-Feb-19 14:20N 27°57' W 082°27'0 0.0
2018-Feb-19 13:59N 27°57' W 082°27'0 0.0
2018-Feb-19 13:29N 27°57' W 082°27'0 0.0
2018-Feb-19 12:59N 27°57' W 082°27'0 0.0
2018-Feb-19 12:30N 27°57' W 082°27'0 0.0
2018-Feb-19 11:59N 27°57' W 082°27'0 0.0
2018-Feb-19 11:28N 27°57' W 082°27'0 0.0
2018-Feb-19 11:00N 27°57' W 082°27'0 0.0
2018-Feb-19 10:29N 27°57' W 082°27'0 0.0
2018-Feb-19 10:00N 27°57' W 082°27'0 0.0
2018-Feb-19 09:30N 27°57' W 082°27'0 0.0
2018-Feb-19 09:00N 27°57' W 082°27'0 0.0
2018-Feb-19 08:24N 27°57' W 082°27'0 0.0
2018-Feb-19 07:58N 27°57' W 082°27'0 0.0
2018-Feb-19 07:28N 27°57' W 082°27'0 0.0
2018-Feb-19 06:58N 27°57' W 082°27'0 0.0
2018-Feb-19 06:28N 27°57' W 082°27'0 0.0
2018-Feb-19 05:59N 27°57' W 082°27'0 0.0
2018-Feb-19 05:29N 27°57' W 082°27'0 0.0
2018-Feb-19 04:59N 27°57' W 082°27'0 0.0
2018-Feb-19 04:29N 27°57' W 082°27'0 0.0
2018-Feb-19 03:59N 27°57' W 082°27'0 0.0
2018-Feb-19 03:28N 27°57' W 082°27'0 0.0
2018-Feb-19 02:58N 27°57' W 082°27'0 0.0
2018-Feb-19 02:28N 27°57' W 082°27'0 0.0
2018-Feb-19 01:59N 27°57' W 082°27'0 0.0
2018-Feb-19 01:29N 27°57' W 082°27'0 0.0
2018-Feb-19 00:55N 27°57' W 082°27'0 0.0
2018-Feb-19 00:29N 27°57' W 082°27'0 0.0
2018-Feb-18 23:59N 27°57' W 082°27'0 0.0
2018-Feb-18 23:29N 27°57' W 082°27'0 0.0
2018-Feb-18 22:59N 27°57' W 082°27'0 0.0
2018-Feb-18 22:28N 27°57' W 082°27'0 0.0
2018-Feb-18 22:00N 27°57' W 082°27'0 0.0
2018-Feb-18 21:27N 27°57' W 082°27'0 0.0
2018-Feb-18 21:00N 27°57' W 082°27'0 0.0
2018-Feb-18 20:30N 27°57' W 082°27'0 0.0
2018-Feb-18 20:00N 27°57' W 082°27'0 0.0
2018-Feb-18 19:30N 27°57' W 082°27'0 0.0
2018-Feb-18 19:00N 27°57' W 082°27'0 0.0
2018-Feb-18 18:29N 27°57' W 082°27'0 0.0
2018-Feb-18 18:00N 27°57' W 082°27'0 0.0
2018-Feb-18 17:25N 27°57' W 082°27'0 0.0
2018-Feb-18 16:59N 27°57' W 082°27'0 0.0
2018-Feb-18 16:29N 27°57' W 082°27'0 0.0
2018-Feb-18 15:59N 27°57' W 082°27'0 0.0
2018-Feb-18 15:29N 27°57' W 082°27'0 0.0
2018-Feb-18 14:58N 27°57' W 082°27'0 0.0
2018-Feb-18 14:27N 27°57' W 082°27'0 0.0
2018-Feb-18 14:00N 27°57' W 082°27'0 0.0
2018-Feb-18 13:30N 27°57' W 082°27'0 0.0
2018-Feb-18 13:00N 27°57' W 082°27'0 0.0
2018-Feb-18 12:29N 27°57' W 082°27'0 0.0
2018-Feb-18 11:59N 27°57' W 082°27'0 0.0
2018-Feb-18 11:27N 27°57' W 082°27'0 0.0
2018-Feb-18 11:00N 27°57' W 082°27'0 0.0
2018-Feb-18 10:25N 27°57' W 082°27'0 0.0
2018-Feb-18 09:55N 27°57' W 082°27'0 0.0
2018-Feb-18 09:25N 27°57' W 082°27'0 0.0
2018-Feb-18 08:58N 27°57' W 082°27'0 0.0
2018-Feb-18 08:28N 27°57' W 082°27'0 0.0
2018-Feb-18 07:56N 27°57' W 082°27'0 0.0
2018-Feb-18 07:29N 27°57' W 082°27'0 0.0
2018-Feb-18 06:57N 27°57' W 082°27'0 0.0
2018-Feb-18 06:30N 27°57' W 082°27'0 0.0
2018-Feb-18 05:59N 27°57' W 082°27'0 0.0
2018-Feb-18 05:24N 27°57' W 082°27'0 0.0
2018-Feb-18 04:57N 27°57' W 082°27'0 0.0
2018-Feb-18 04:30N 27°57' W 082°27'0 0.0
2018-Feb-18 04:00N 27°57' W 082°27'0 0.0
2018-Feb-18 03:27N 27°57' W 082°27'0 0.0
2018-Feb-18 02:59N 27°57' W 082°27'0 0.0
2018-Feb-18 02:26N 27°57' W 082°27'0 0.0
2018-Feb-18 01:59N 27°57' W 082°27'0 0.0
2018-Feb-18 01:29N 27°57' W 082°27'0 0.0
2018-Feb-18 00:59N 27°57' W 082°27'0 0.0
2018-Feb-18 00:29N 27°57' W 082°27'0 0.0
2018-Feb-17 23:59N 27°57' W 082°27'0 0.0
2018-Feb-17 23:29N 27°57' W 082°27'0 0.0
2018-Feb-17 22:58N 27°57' W 082°27'0 0.0
2018-Feb-17 22:30N 27°57' W 082°27'0 0.0
2018-Feb-17 21:58N 27°57' W 082°27'0 0.0
2018-Feb-17 21:30N 27°57' W 082°27'0 0.0
2018-Feb-17 21:00N 27°57' W 082°27'0 0.0
2018-Feb-17 20:30N 27°57' W 082°27'0 0.0
2018-Feb-17 19:54N 27°57' W 082°27'0 0.0
2018-Feb-17 19:29N 27°57' W 082°27'0 0.0
2018-Feb-17 18:59N 27°57' W 082°27'0 0.0
2018-Feb-17 18:29N 27°57' W 082°27'0 0.0
2018-Feb-17 17:59N 27°57' W 082°27'0 0.0
2018-Feb-17 17:29N 27°57' W 082°27'0 0.0
2018-Feb-17 16:59N 27°57' W 082°27'0 0.0
2018-Feb-17 16:29N 27°57' W 082°27'0 0.0
2018-Feb-17 15:58N 27°57' W 082°27'0 0.0
2018-Feb-17 15:29N 27°57' W 082°27'0 0.0
2018-Feb-17 14:59N 27°57' W 082°27'0 0.0
2018-Feb-17 14:29N 27°57' W 082°27'0 0.0
2018-Feb-17 14:00N 27°57' W 082°27'0 0.0
2018-Feb-17 13:30N 27°57' W 082°27'0 0.0
2018-Feb-17 13:00N 27°57' W 082°27'0 0.0
2018-Feb-17 12:27N 27°57' W 082°27'0 0.0
2018-Feb-17 11:58N 27°57' W 082°27'0 0.0
2018-Feb-17 11:28N 27°57' W 082°27'0 0.0
2018-Feb-17 10:59N 27°57' W 082°27'0 0.0
2018-Feb-17 10:28N 27°57' W 082°27'0 0.0
2018-Feb-17 10:00N 27°57' W 082°27'0 0.0
2018-Feb-17 09:28N 27°57' W 082°27'0 0.0
2018-Feb-17 08:58N 27°57' W 082°27'0 0.0
2018-Feb-17 08:28N 27°57' W 082°27'0 0.0
2018-Feb-17 07:59N 27°57' W 082°27'0 0.0
2018-Feb-17 07:26N 27°57' W 082°27'0 0.0
2018-Feb-17 06:59N 27°57' W 082°27'0 0.0
2018-Feb-17 06:27N 27°57' W 082°27'0 0.0
2018-Feb-17 06:00N 27°57' W 082°27'0 0.0
2018-Feb-17 05:28N 27°57' W 082°27'0 0.0
2018-Feb-17 04:58N 27°57' W 082°27'0 0.0
2018-Feb-17 04:25N 27°57' W 082°27'0 0.0
2018-Feb-17 03:54N 27°57' W 082°27'0 0.0
2018-Feb-17 03:28N 27°57' W 082°27'0 0.0
2018-Feb-17 02:59N 27°57' W 082°27'0 0.0
2018-Feb-17 02:29N 27°57' W 082°27'0 0.0
2018-Feb-17 01:58N 27°57' W 082°27'0 0.0
2018-Feb-17 01:29N 27°57' W 082°27'0 0.0
2018-Feb-17 00:59N 27°57' W 082°27'0 0.0
2018-Feb-17 00:30N 27°57' W 082°27'0 0.0
2018-Feb-16 23:59N 27°57' W 082°27'0 0.0
2018-Feb-16 23:25N 27°57' W 082°27'0 0.0
2018-Feb-16 22:53N 27°57' W 082°27'0 0.0
2018-Feb-16 22:29N 27°57' W 082°27'0 0.0
2018-Feb-16 22:00N 27°57' W 082°27'0 0.0
2018-Feb-16 21:29N 27°57' W 082°27'0 0.0
2018-Feb-16 20:59N 27°57' W 082°27'0 0.0
2018-Feb-16 20:29N 27°57' W 082°27'0 0.0
2018-Feb-16 19:59N 27°57' W 082°27'0 0.0
2018-Feb-16 19:27N 27°57' W 082°27'0 0.0
2018-Feb-16 19:00N 27°57' W 082°27'0 0.0
2018-Feb-16 18:30N 27°57' W 082°27'0 0.0
2018-Feb-16 17:57N 27°57' W 082°27'0 0.0
2018-Feb-16 17:29N 27°57' W 082°27'0 0.0
2018-Feb-16 17:00N 27°57' W 082°27'0 0.0
2018-Feb-16 16:25N 27°57' W 082°27'0 0.0
2018-Feb-16 15:58N 27°57' W 082°27'0 0.0
2018-Feb-16 15:30N 27°57' W 082°27'0 0.0
2018-Feb-16 15:00N 27°57' W 082°27'0 0.0
2018-Feb-16 14:29N 27°57' W 082°27'0 0.0
2018-Feb-16 13:59N 27°57' W 082°27'0 0.0
2018-Feb-16 13:26N 27°57' W 082°27'0 0.0
2018-Feb-16 12:58N 27°57' W 082°27'0 0.0
2018-Feb-16 12:29N 27°57' W 082°27'0 0.0
2018-Feb-16 11:59N 27°57' W 082°27'0 0.0
2018-Feb-16 11:29N 27°57' W 082°27'0 0.0
2018-Feb-16 10:59N 27°57' W 082°27'0 0.0
2018-Feb-16 10:28N 27°57' W 082°27'0 0.0
2018-Feb-16 09:58N 27°57' W 082°27'0 0.0
2018-Feb-16 09:30N 27°57' W 082°27'0 0.0
2018-Feb-16 08:59N 27°57' W 082°27'0 0.0
2018-Feb-16 08:30N 27°57' W 082°27'0 0.0
2018-Feb-16 08:00N 27°57' W 082°27'0 0.0
2018-Feb-16 07:25N 27°57' W 082°27'0 0.1
2018-Feb-16 06:57N 27°56' W 082°27'3 7.2
2018-Feb-16 06:30N 27°53' W 082°27'4 8.7
2018-Feb-16 05:59N 27°49' W 082°27'4 8.8
2018-Feb-16 05:30N 27°46' W 082°31'0 0.0
2018-Feb-15 20:04N 27°46' W 082°31'1 8.3
2018-Feb-15 19:58N 27°47' W 082°30'4 8.1
2018-Feb-15 19:26N 27°50' W 082°27'4 8.6
2018-Feb-15 19:00N 27°54' W 082°26'3 5.4
2018-Feb-15 18:29N 27°57' W 082°27'0 0.0
2018-Feb-15 17:59N 27°57' W 082°27'0 0.0
2018-Feb-15 17:25N 27°57' W 082°27'0 0.0
2018-Feb-15 16:58N 27°57' W 082°27'0 0.0
2018-Feb-15 16:29N 27°57' W 082°27'0 0.0
2018-Feb-15 15:59N 27°57' W 082°27'0 0.0
2018-Feb-15 15:29N 27°57' W 082°27'0 0.0
2018-Feb-15 14:59N 27°57' W 082°27'0 0.0
2018-Feb-15 14:28N 27°57' W 082°27'0 0.0
2018-Feb-15 13:58N 27°57' W 082°27'0 0.0
2018-Feb-15 13:28N 27°57' W 082°27'  
Track history (hours):
 
Tides and Currents Weather Stations Pressure Air Temp Water Temp Dewpoint Dewpoint Depression Visibility Wind Speed Wind Dir Waves Ship Positions

Starship II

Owner: Starship Cruise Lines, Tampa, FL. More information available from US FCC via Universal Licensing System and Coast Guard Vessel Documentation Center.

Last reported at 2018-Feb-25 13:28 UTC. Time now 2018-Feb-25 13:38 UTC.
Position N 27°57' W 082°27'.

MMSI: 367188610.

Date/timePositionNaut miles runAvg speedWind from/ knotsBaromVisibWave heightAir tempDewpointWater temp
2018-Feb-25 13:28N 27°57' W 082°27'0 0.0
2018-Feb-25 12:55N 27°57' W 082°27'0 0.1
2018-Feb-25 12:30N 27°57' W 082°27'0 0.0
2018-Feb-25 11:56N 27°57' W 082°27'0 0.0
2018-Feb-25 11:29N 27°57' W 082°27'0 0.0
2018-Feb-25 10:59N 27°57' W 082°27'0 0.0
2018-Feb-25 10:30N 27°57' W 082°27'0 0.0
2018-Feb-25 09:58N 27°57' W 082°27'0 0.0
2018-Feb-25 09:29N 27°57' W 082°27'0 0.0
2018-Feb-25 08:56N 27°57' W 082°27'0 0.0
2018-Feb-25 08:29N 27°57' W 082°27'0 0.0
2018-Feb-25 07:59N 27°57' W 082°27'0 0.0
2018-Feb-25 07:27N 27°57' W 082°27'0 0.0
2018-Feb-25 07:00N 27°57' W 082°27'2 3.6
2018-Feb-25 06:30N 27°55' W 082°27'2 4.1
2018-Feb-25 05:55N 27°53' W 082°29'0 0.9
2018-Feb-25 05:30N 27°53' W 082°28'3 5.0
2018-Feb-25 04:58N 27°56' W 082°27'1 1.3
2018-Feb-25 04:28N 27°56' W 082°27'0 0.0
2018-Feb-25 03:59N 27°56' W 082°27'0 0.0
2018-Feb-25 03:29N 27°56' W 082°27'0 0.0
2018-Feb-25 02:59N 27°56' W 082°27'0 0.0
2018-Feb-25 02:29N 27°56' W 082°27'0 0.2
2018-Feb-25 02:00N 27°56' W 082°27'0 0.8
2018-Feb-25 01:30N 27°57' W 082°27'0 0.0
2018-Feb-25 00:58N 27°57' W 082°27'0 0.0
2018-Feb-25 00:28N 27°57' W 082°27'1 2.2
2018-Feb-25 00:01N 27°55' W 082°27'0 0.2
2018-Feb-24 23:30N 27°55' W 082°27'2 3.8
2018-Feb-24 23:00N 27°53' W 082°27'2 4.1
2018-Feb-24 22:30N 27°56' W 082°27'1 1.8
2018-Feb-24 21:58N 27°57' W 082°27'0 0.0
2018-Feb-24 21:28N 27°57' W 082°27'0 0.0
2018-Feb-24 20:58N 27°57' W 082°27'0 0.0
2018-Feb-24 20:28N 27°57' W 082°27'0 0.0
2018-Feb-24 20:00N 27°57' W 082°27'0 0.0
2018-Feb-24 19:29N 27°57' W 082°27'0 0.0
2018-Feb-24 18:59N 27°57' W 082°27'0 0.0
2018-Feb-24 18:28N 27°57' W 082°27'0 0.0
2018-Feb-24 17:58N 27°57' W 082°27'0 0.0
2018-Feb-24 17:25N 27°57' W 082°27'0 0.0
2018-Feb-24 16:58N 27°57' W 082°27'0 0.0
2018-Feb-24 16:29N 27°57' W 082°27'0 0.0
2018-Feb-24 15:58N 27°57' W 082°27'0 0.0
2018-Feb-24 15:30N 27°57' W 082°27'0 0.0
2018-Feb-24 14:59N 27°57' W 082°27'0 0.0
2018-Feb-24 14:29N 27°57' W 082°27'0 0.0
2018-Feb-24 13:58N 27°57' W 082°27'0 0.0
2018-Feb-24 13:28N 27°57' W 082°27'0 0.0
2018-Feb-24 13:00N 27°57' W 082°27'0 0.0
2018-Feb-24 12:28N 27°57' W 082°27'0 0.0
2018-Feb-24 11:56N 27°57' W 082°27'0 0.0
2018-Feb-24 11:29N 27°57' W 082°27'0 0.0
2018-Feb-24 11:00N 27°57' W 082°27'0 0.0
2018-Feb-24 10:30N 27°57' W 082°27'0 0.0
2018-Feb-24 09:59N 27°57' W 082°27'0 0.0
2018-Feb-24 09:29N 27°57' W 082°27'0 0.0
2018-Feb-24 08:59N 27°57' W 082°27'0 0.0
2018-Feb-24 08:29N 27°57' W 082°27'0 0.0
2018-Feb-24 07:58N 27°57' W 082°27'0 0.0
2018-Feb-24 07:26N 27°57' W 082°27'0 0.0
2018-Feb-24 06:59N 27°57' W 082°27'0 0.0
2018-Feb-24 06:29N 27°57' W 082°27'0 0.0
2018-Feb-24 05:58N 27°57' W 082°27'0 0.0
2018-Feb-24 05:29N 27°57' W 082°27'0 0.0
2018-Feb-24 04:58N 27°57' W 082°27'0 0.0
2018-Feb-24 04:29N 27°57' W 082°27'0 0.0
2018-Feb-24 04:00N 27°57' W 082°27'0 0.0
2018-Feb-24 03:24N 27°57' W 082°27'0 0.0
2018-Feb-24 03:00N 27°57' W 082°27'0 0.0
2018-Feb-24 02:29N 27°57' W 082°27'0 0.0
2018-Feb-24 01:59N 27°57' W 082°27'0 0.0
2018-Feb-24 01:29N 27°57' W 082°27'0 0.0
2018-Feb-24 00:54N 27°57' W 082°27'0 0.0
2018-Feb-24 00:30N 27°57' W 082°27'0 0.0
2018-Feb-23 23:58N 27°57' W 082°27'0 0.0
2018-Feb-23 23:29N 27°57' W 082°27'0 0.0
2018-Feb-23 23:00N 27°57' W 082°27'0 0.0
2018-Feb-23 22:30N 27°57' W 082°27'0 0.0
2018-Feb-23 22:00N 27°57' W 082°27'0 0.0
2018-Feb-23 21:30N 27°57' W 082°27'0 0.0
2018-Feb-23 21:00N 27°57' W 082°27'0 0.0
2018-Feb-23 20:29N 27°57' W 082°27'0 0.0
2018-Feb-23 19:55N 27°57' W 082°27'0 0.0
2018-Feb-23 19:28N 27°57' W 082°27'0 0.0
2018-Feb-23 18:58N 27°57' W 082°27'0 0.0
2018-Feb-23 18:27N 27°57' W 082°27'0 0.0
2018-Feb-23 18:00N 27°57' W 082°27'0 0.0
2018-Feb-23 17:29N 27°57' W 082°27'0 0.0
2018-Feb-23 17:00N 27°57' W 082°27'0 0.0
2018-Feb-23 16:30N 27°57' W 082°27'0 0.0
2018-Feb-23 16:00N 27°57' W 082°27'0 0.0
2018-Feb-23 15:30N 27°57' W 082°27'0 0.0
2018-Feb-23 14:54N 27°57' W 082°27'0 0.0
2018-Feb-23 14:30N 27°57' W 082°27'0 0.0
2018-Feb-23 14:00N 27°57' W 082°27'0 0.0
2018-Feb-23 13:30N 27°57' W 082°27'0 0.0
2018-Feb-23 12:58N 27°57' W 082°27'0 0.0
2018-Feb-23 12:28N 27°57' W 082°27'0 0.0
2018-Feb-23 12:00N 27°57' W 082°27'0 0.0
2018-Feb-23 11:30N 27°57' W 082°27'0 0.0
2018-Feb-23 11:00N 27°57' W 082°27'0 0.0
2018-Feb-23 10:27N 27°57' W 082°27'0 0.0
2018-Feb-23 10:00N 27°57' W 082°27'0 0.0
2018-Feb-23 09:30N 27°57' W 082°27'0 0.0
2018-Feb-23 08:58N 27°57' W 082°27'0 0.0
2018-Feb-23 08:29N 27°57' W 082°27'0 0.0
2018-Feb-23 07:58N 27°57' W 082°27'0 0.0
2018-Feb-23 07:28N 27°57' W 082°27'0 0.0
2018-Feb-23 06:58N 27°57' W 082°27'0 0.0
2018-Feb-23 06:28N 27°57' W 082°27'0 0.0
2018-Feb-23 05:59N 27°57' W 082°27'0 0.0
2018-Feb-23 05:28N 27°57' W 082°27'0 0.0
2018-Feb-23 04:58N 27°57' W 082°27'0 0.0
2018-Feb-23 04:28N 27°57' W 082°27'0 0.0
2018-Feb-23 03:58N 27°57' W 082°27'0 0.0
2018-Feb-23 03:28N 27°57' W 082°27'0 0.0
2018-Feb-23 03:00N 27°57' W 082°27'0 0.0
2018-Feb-23 02:30N 27°57' W 082°27'1 1.8
2018-Feb-23 02:00N 27°56' W 082°27'1 1.7
2018-Feb-23 01:30N 27°55' W 082°27'1 1.4
2018-Feb-23 01:00N 27°54' W 082°27'0 0.5
2018-Feb-23 00:30N 27°54' W 082°27'2 4.2
2018-Feb-23 00:00N 27°56' W 082°27'0 0.3
2018-Feb-22 23:30N 27°57' W 082°27'0 0.0
2018-Feb-22 22:57N 27°57' W 082°27'0 0.0
2018-Feb-22 22:30N 27°57' W 082°27'0 0.0
2018-Feb-22 22:00N 27°57' W 082°27'0 0.0
2018-Feb-22 21:28N 27°57' W 082°27'0 0.0
2018-Feb-22 20:58N 27°57' W 082°27'0 0.0
2018-Feb-22 20:30N 27°57' W 082°27'0 0.0
2018-Feb-22 20:00N 27°57' W 082°27'0 0.0
2018-Feb-22 19:27N 27°57' W 082°27'0 0.0
2018-Feb-22 19:00N 27°57' W 082°27'0 0.0
2018-Feb-22 18:30N 27°57' W 082°27'0 0.0
2018-Feb-22 18:00N 27°57' W 082°27'0 0.0
2018-Feb-22 17:29N 27°57' W 082°27'0 0.0
2018-Feb-22 16:59N 27°57' W 082°27'0 0.0
2018-Feb-22 16:29N 27°57' W 082°27'0 0.0
2018-Feb-22 15:59N 27°57' W 082°27'0 0.0
2018-Feb-22 15:30N 27°57' W 082°27'0 0.0
2018-Feb-22 15:00N 27°57' W 082°27'0 0.0
2018-Feb-22 14:29N 27°57' W 082°27'0 0.0
2018-Feb-22 14:00N 27°57' W 082°27'0 0.0
2018-Feb-22 13:30N 27°57' W 082°27'0 0.0
2018-Feb-22 12:50N 27°57' W 082°27'0 0.0
2018-Feb-22 12:30N 27°57' W 082°27'0 0.0
2018-Feb-22 12:00N 27°57' W 082°27'0 0.0
2018-Feb-22 11:29N 27°57' W 082°27'0 0.0
2018-Feb-22 10:59N 27°57' W 082°27'0 0.0
2018-Feb-22 10:29N 27°57' W 082°27'0 0.0
2018-Feb-22 09:56N 27°57' W 082°27'0 0.0
2018-Feb-22 09:29N 27°57' W 082°27'0 0.0
2018-Feb-22 08:56N 27°57' W 082°27'0 0.0
2018-Feb-22 08:26N 27°57' W 082°27'0 0.0
2018-Feb-22 07:59N 27°57' W 082°27'0 0.0
2018-Feb-22 07:29N 27°57' W 082°27'0 0.0
2018-Feb-22 07:00N 27°57' W 082°27'0 0.0
2018-Feb-22 06:29N 27°57' W 082°27'0 0.0
2018-Feb-22 05:58N 27°57' W 082°27'0 0.0
2018-Feb-22 05:30N 27°57' W 082°27'0 0.0
2018-Feb-22 05:00N 27°57' W 082°27'0 0.0
2018-Feb-22 04:30N 27°57' W 082°27'0 0.0
2018-Feb-22 03:57N 27°57' W 082°27'0 0.0
2018-Feb-22 03:30N 27°57' W 082°27'0 0.0
2018-Feb-22 03:00N 27°57' W 082°27'0 0.0
2018-Feb-22 02:27N 27°57' W 082°27'0 0.0
2018-Feb-22 01:59N 27°57' W 082°27'0 0.0
2018-Feb-22 01:29N 27°57' W 082°27'0 0.0
2018-Feb-22 01:00N 27°57' W 082°27'0 0.0
2018-Feb-22 00:28N 27°57' W 082°27'0 0.0
2018-Feb-21 23:59N 27°57' W 082°27'0 0.0
2018-Feb-21 23:29N 27°57' W 082°27'0 0.0
2018-Feb-21 22:59N 27°57' W 082°27'0 0.0
2018-Feb-21 22:29N 27°57' W 082°27'0 0.0
2018-Feb-21 21:59N 27°57' W 082°27'0 0.0
2018-Feb-21 21:26N 27°57' W 082°27'0 0.0
2018-Feb-21 20:54N 27°57' W 082°27'0 0.0
2018-Feb-21 20:29N 27°57' W 082°27'0 0.0
2018-Feb-21 19:56N 27°57' W 082°27'0 0.0
2018-Feb-21 19:29N 27°57' W 082°27'0 0.0
2018-Feb-21 18:59N 27°57' W 082°27'0 0.0
2018-Feb-21 18:29N 27°57' W 082°27'0 0.0
2018-Feb-21 17:59N 27°57' W 082°27'0 0.0
2018-Feb-21 17:29N 27°57' W 082°27'0 0.0
2018-Feb-21 16:59N 27°57' W 082°27'0 0.0
2018-Feb-21 16:29N 27°57' W 082°27'0 0.0
2018-Feb-21 16:00N 27°57' W 082°27'0 0.0
2018-Feb-21 15:30N 27°57' W 082°27'0 0.0
2018-Feb-21 15:00N 27°57' W 082°27'0 0.0
2018-Feb-21 14:28N 27°57' W 082°27'0 0.0
2018-Feb-21 14:00N 27°57' W 082°27'0 0.0
2018-Feb-21 13:30N 27°57' W 082°27'0 0.0
2018-Feb-21 13:00N 27°57' W 082°27'0 0.0
2018-Feb-21 12:28N 27°57' W 082°27'0 0.0
2018-Feb-21 11:58N 27°57' W 082°27'0 0.0
2018-Feb-21 11:28N 27°57' W 082°27'0 0.0
2018-Feb-21 10:58N 27°57' W 082°27'0 0.0
2018-Feb-21 10:23N 27°57' W 082°27'0 0.0
2018-Feb-21 09:59N 27°57' W 082°27'0 0.0
2018-Feb-21 09:30N 27°57' W 082°27'0 0.0
2018-Feb-21 09:00N 27°57' W 082°27'0 0.0
2018-Feb-21 08:29N 27°57' W 082°27'0 0.0
2018-Feb-21 08:00N 27°57' W 082°27'0 0.0
2018-Feb-21 07:29N 27°57' W 082°27'0 0.0
2018-Feb-21 06:59N 27°57' W 082°27'0 0.0
2018-Feb-21 06:29N 27°57' W 082°27'0 0.0
2018-Feb-21 05:59N 27°57' W 082°27'0 0.0
2018-Feb-21 05:25N 27°57' W 082°27'0 0.0
2018-Feb-21 04:55N 27°57' W 082°27'0 0.0
2018-Feb-21 04:30N 27°57' W 082°27'0 0.0
2018-Feb-21 03:58N 27°57' W 082°27'0 0.0
2018-Feb-21 03:28N 27°57' W 082°27'0 0.0
2018-Feb-21 03:00N 27°57' W 082°27'0 0.0
2018-Feb-21 02:30N 27°57' W 082°27'0 0.0
2018-Feb-21 02:00N 27°57' W 082°27'0 0.0
2018-Feb-21 01:25N 27°57' W 082°27'0 0.0
2018-Feb-21 01:00N 27°57' W 082°27'0 0.0
2018-Feb-21 00:28N 27°57' W 082°27'0 0.0
2018-Feb-20 23:58N 27°57' W 082°27'0 0.0
2018-Feb-20 23:25N 27°57' W 082°27'0 0.0
2018-Feb-20 22:58N 27°57' W 082°27'0 0.0
2018-Feb-20 22:28N 27°57' W 082°27'0 0.0
2018-Feb-20 21:58N 27°57' W 082°27'0 0.0
2018-Feb-20 21:30N 27°57' W 082°27'0 0.0
2018-Feb-20 20:59N 27°57' W 082°27'0 0.0
2018-Feb-20 20:23N 27°57' W 082°27'0 0.0
2018-Feb-20 19:59N 27°57' W 082°27'0 0.0
2018-Feb-20 19:26N 27°57' W 082°27'0 0.0
2018-Feb-20 18:59N 27°57' W 082°27'0 0.0
2018-Feb-20 18:29N 27°57' W 082°27'0 0.0
2018-Feb-20 17:59N 27°57' W 082°27'0 0.0
2018-Feb-20 17:29N 27°57' W 082°27'0 0.0
2018-Feb-20 17:00N 27°57' W 082°27'0 0.0
2018-Feb-20 16:28N 27°57' W 082°27'0 0.0
2018-Feb-20 16:00N 27°57' W 082°27'0 0.0
2018-Feb-20 15:29N 27°57' W 082°27'0 0.0
2018-Feb-20 14:54N 27°57' W 082°27'0 0.0
2018-Feb-20 14:30N 27°57' W 082°27'0 0.0
2018-Feb-20 13:59N 27°57' W 082°27'0 0.0
2018-Feb-20 13:29N 27°57' W 082°27'0 0.0
2018-Feb-20 12:59N 27°57' W 082°27'0 0.0
2018-Feb-20 12:28N 27°57' W 082°27'0 0.0
2018-Feb-20 11:49N 27°57' W 082°27'0 0.0
2018-Feb-20 11:28N 27°57' W 082°27'0 0.0
2018-Feb-20 10:59N 27°57' W 082°27'0 0.0
2018-Feb-20 10:29N 27°57' W 082°27'0 0.0
2018-Feb-20 09:59N 27°57' W 082°27'0 0.0
2018-Feb-20 09:29N 27°57' W 082°27'0 0.0
2018-Feb-20 08:59N 27°57' W 082°27'0 0.0
2018-Feb-20 08:29N 27°57' W 082°27'0 0.0
2018-Feb-20 08:00N 27°57' W 082°27'0 0.0
2018-Feb-20 07:30N 27°57' W 082°27'0 0.0
2018-Feb-20 07:00N 27°57' W 082°27'0 0.0
2018-Feb-20 06:30N 27°57' W 082°27'0 0.0
2018-Feb-20 05:59N 27°57' W 082°27'0 0.0
2018-Feb-20 05:30N 27°57' W 082°27'0 0.0
2018-Feb-20 05:00N 27°57' W 082°27'0 0.0
2018-Feb-20 04:30N 27°57' W 082°27'0 0.0
2018-Feb-20 03:59N 27°57' W 082°27'0 0.0
2018-Feb-20 03:28N 27°57' W 082°27'0 0.0
2018-Feb-20 02:58N 27°57' W 082°27'0 0.0
2018-Feb-20 02:26N 27°57' W 082°27'0 0.0
2018-Feb-20 01:59N 27°57' W 082°27'0 0.0
2018-Feb-20 01:28N 27°57' W 082°27'0 0.0
2018-Feb-20 00:58N 27°57' W 082°27'0 0.0
2018-Feb-20 00:29N 27°57' W 082°27'0 0.0
2018-Feb-19 23:58N 27°57' W 082°27'0 0.0
2018-Feb-19 23:28N 27°57' W 082°27'0 0.0
2018-Feb-19 22:58N 27°57' W 082°27'0 0.0
2018-Feb-19 22:26N 27°57' W 082°27'0 0.0
2018-Feb-19 21:59N 27°57' W 082°27'0 0.0
2018-Feb-19 21:23N 27°57' W 082°27'0 0.0
2018-Feb-19 20:57N 27°57' W 082°27'0 0.0
2018-Feb-19 20:30N 27°57' W 082°27'0 0.0
2018-Feb-19 19:59N 27°57' W 082°27'0 0.0
2018-Feb-19 19:26N 27°57' W 082°27'0 0.0
2018-Feb-19 19:00N 27°57' W 082°27'0 0.0
2018-Feb-19 18:30N 27°57' W 082°27'0 0.0
2018-Feb-19 17:58N 27°57' W 082°27'0 0.0
2018-Feb-19 17:28N 27°57' W 082°27'0 0.0
2018-Feb-19 16:53N 27°57' W 082°27'0 0.0
2018-Feb-19 16:29N 27°57' W 082°27'0 0.0
2018-Feb-19 15:59N 27°57' W 082°27'0 0.0
2018-Feb-19 15:29N 27°57' W 082°27'0 0.0
2018-Feb-19 14:57N 27°57' W 082°27'0 0.0
2018-Feb-19 14:20N 27°57' W 082°27'0 0.0
2018-Feb-19 13:59N 27°57' W 082°27'0 0.0
2018-Feb-19 13:29N 27°57' W 082°27'0 0.0
2018-Feb-19 12:59N 27°57' W 082°27'0 0.0
2018-Feb-19 12:30N 27°57' W 082°27'0 0.0
2018-Feb-19 11:59N 27°57' W 082°27'0 0.0
2018-Feb-19 11:28N 27°57' W 082°27'0 0.0
2018-Feb-19 11:00N 27°57' W 082°27'0 0.0
2018-Feb-19 10:29N 27°57' W 082°27'0 0.0
2018-Feb-19 10:00N 27°57' W 082°27'0 0.0
2018-Feb-19 09:30N 27°57' W 082°27'0 0.0
2018-Feb-19 09:00N 27°57' W 082°27'0 0.0
2018-Feb-19 08:24N 27°57' W 082°27'0 0.0
2018-Feb-19 07:58N 27°57' W 082°27'0 0.0
2018-Feb-19 07:28N 27°57' W 082°27'0 0.0
2018-Feb-19 06:58N 27°57' W 082°27'0 0.0
2018-Feb-19 06:28N 27°57' W 082°27'0 0.0
2018-Feb-19 05:59N 27°57' W 082°27'0 0.0
2018-Feb-19 05:29N 27°57' W 082°27'0 0.0
2018-Feb-19 04:59N 27°57' W 082°27'0 0.0
2018-Feb-19 04:29N 27°57' W 082°27'0 0.0
2018-Feb-19 03:59N 27°57' W 082°27'0 0.0
2018-Feb-19 03:28N 27°57' W 082°27'0 0.0
2018-Feb-19 02:58N 27°57' W 082°27'0 0.0
2018-Feb-19 02:28N 27°57' W 082°27'0 0.0
2018-Feb-19 01:59N 27°57' W 082°27'0 0.0
2018-Feb-19 01:29N 27°57' W 082°27'0 0.0
2018-Feb-19 00:55N 27°57' W 082°27'0 0.0
2018-Feb-19 00:29N 27°57' W 082°27'0 0.0
2018-Feb-18 23:59N 27°57' W 082°27'0 0.0
2018-Feb-18 23:29N 27°57' W 082°27'0 0.0
2018-Feb-18 22:59N 27°57' W 082°27'0 0.0
2018-Feb-18 22:28N 27°57' W 082°27'0 0.0
2018-Feb-18 22:00N 27°57' W 082°27'0 0.0
2018-Feb-18 21:27N 27°57' W 082°27'0 0.0
2018-Feb-18 21:00N 27°57' W 082°27'0 0.0
2018-Feb-18 20:30N 27°57' W 082°27'0 0.0
2018-Feb-18 20:00N 27°57' W 082°27'0 0.0
2018-Feb-18 19:30N 27°57' W 082°27'0 0.0
2018-Feb-18 19:00N 27°57' W 082°27'0 0.0
2018-Feb-18 18:29N 27°57' W 082°27'0 0.0
2018-Feb-18 18:00N 27°57' W 082°27'0 0.0
2018-Feb-18 17:25N 27°57' W 082°27'0 0.0
2018-Feb-18 16:59N 27°57' W 082°27'0 0.0
2018-Feb-18 16:29N 27°57' W 082°27'0 0.0
2018-Feb-18 15:59N 27°57' W 082°27'0 0.0
2018-Feb-18 15:29N 27°57' W 082°27'0 0.0
2018-Feb-18 14:58N 27°57' W 082°27'0 0.0
2018-Feb-18 14:27N 27°57' W 082°27'0 0.0
2018-Feb-18 14:00N 27°57' W 082°27'0 0.0
2018-Feb-18 13:30N 27°57' W 082°27'0 0.0
2018-Feb-18 13:00N 27°57' W 082°27'0 0.0
2018-Feb-18 12:29N 27°57' W 082°27'0 0.0
2018-Feb-18 11:59N 27°57' W 082°27'0 0.0
2018-Feb-18 11:27N 27°57' W 082°27'0 0.0
2018-Feb-18 11:00N 27°57' W 082°27'0 0.0
2018-Feb-18 10:25N 27°57' W 082°27'0 0.0
2018-Feb-18 09:55N 27°57' W 082°27'0 0.0
2018-Feb-18 09:25N 27°57' W 082°27'0 0.0
2018-Feb-18 08:58N 27°57' W 082°27'0 0.0
2018-Feb-18 08:28N 27°57' W 082°27'0 0.0
2018-Feb-18 07:56N 27°57' W 082°27'0 0.0
2018-Feb-18 07:29N 27°57' W 082°27'0 0.0
2018-Feb-18 06:57N 27°57' W 082°27'0 0.0
2018-Feb-18 06:30N 27°57' W 082°27'0 0.0
2018-Feb-18 05:59N 27°57' W 082°27'0 0.0
2018-Feb-18 05:24N 27°57' W 082°27'0 0.0
2018-Feb-18 04:57N 27°57' W 082°27'0 0.0
2018-Feb-18 04:30N 27°57' W 082°27'0 0.0
2018-Feb-18 04:00N 27°57' W 082°27'0 0.0
2018-Feb-18 03:27N 27°57' W 082°27'0 0.0
2018-Feb-18 02:59N 27°57' W 082°27'0 0.0
2018-Feb-18 02:26N 27°57' W 082°27'0 0.0
2018-Feb-18 01:59N 27°57' W 082°27'0 0.0
2018-Feb-18 01:29N 27°57' W 082°27'0 0.0
2018-Feb-18 00:59N 27°57' W 082°27'0 0.0
2018-Feb-18 00:29N 27°57' W 082°27'0 0.0
2018-Feb-17 23:59N 27°57' W 082°27'0 0.0
2018-Feb-17 23:29N 27°57' W 082°27'0 0.0
2018-Feb-17 22:58N 27°57' W 082°27'0 0.0
2018-Feb-17 22:30N 27°57' W 082°27'0 0.0
2018-Feb-17 21:58N 27°57' W 082°27'0 0.0
2018-Feb-17 21:30N 27°57' W 082°27'0 0.0
2018-Feb-17 21:00N 27°57' W 082°27'0 0.0
2018-Feb-17 20:30N 27°57' W 082°27'0 0.0
2018-Feb-17 19:54N 27°57' W 082°27'0 0.0
2018-Feb-17 19:29N 27°57' W 082°27'0 0.0
2018-Feb-17 18:59N 27°57' W 082°27'0 0.0
2018-Feb-17 18:29N 27°57' W 082°27'0 0.0
2018-Feb-17 17:59N 27°57' W 082°27'0 0.0
2018-Feb-17 17:29N 27°57' W 082°27'0 0.0
2018-Feb-17 16:59N 27°57' W 082°27'0 0.0
2018-Feb-17 16:29N 27°57' W 082°27'0 0.0
2018-Feb-17 15:58N 27°57' W 082°27'0 0.0
2018-Feb-17 15:29N 27°57' W 082°27'0 0.0
2018-Feb-17 14:59N 27°57' W 082°27'0 0.0
2018-Feb-17 14:29N 27°57' W 082°27'0 0.0
2018-Feb-17 14:00N 27°57' W 082°27'0 0.0
2018-Feb-17 13:30N 27°57' W 082°27'0 0.0
2018-Feb-17 13:00N 27°57' W 082°27'0 0.0
2018-Feb-17 12:27N 27°57' W 082°27'0 0.0
2018-Feb-17 11:58N 27°57' W 082°27'0 0.0
2018-Feb-17 11:28N 27°57' W 082°27'0 0.0
2018-Feb-17 10:59N 27°57' W 082°27'0 0.0
2018-Feb-17 10:28N 27°57' W 082°27'0 0.0
2018-Feb-17 10:00N 27°57' W 082°27'0 0.0
2018-Feb-17 09:28N 27°57' W 082°27'0 0.0
2018-Feb-17 08:58N 27°57' W 082°27'0 0.0
2018-Feb-17 08:28N 27°57' W 082°27'0 0.0
2018-Feb-17 07:59N 27°57' W 082°27'0 0.0
2018-Feb-17 07:26N 27°57' W 082°27'0 0.0
2018-Feb-17 06:59N 27°57' W 082°27'0 0.0
2018-Feb-17 06:27N 27°57' W 082°27'0 0.0
2018-Feb-17 06:00N 27°57' W 082°27'0 0.0
2018-Feb-17 05:28N 27°57' W 082°27'0 0.0
2018-Feb-17 04:58N 27°57' W 082°27'0 0.0
2018-Feb-17 04:25N 27°57' W 082°27'0 0.0
2018-Feb-17 03:54N 27°57' W 082°27'0 0.0
2018-Feb-17 03:28N 27°57' W 082°27'0 0.0
2018-Feb-17 02:59N 27°57' W 082°27'0 0.0
2018-Feb-17 02:29N 27°57' W 082°27'0 0.0
2018-Feb-17 01:58N 27°57' W 082°27'0 0.0
2018-Feb-17 01:29N 27°57' W 082°27'0 0.0
2018-Feb-17 00:59N 27°57' W 082°27'0 0.0
2018-Feb-17 00:30N 27°57' W 082°27'0 0.0
2018-Feb-16 23:59N 27°57' W 082°27'0 0.0
2018-Feb-16 23:25N 27°57' W 082°27'0 0.0
2018-Feb-16 22:53N 27°57' W 082°27'0 0.0
2018-Feb-16 22:29N 27°57' W 082°27'0 0.0
2018-Feb-16 22:00N 27°57' W 082°27'0 0.0
2018-Feb-16 21:29N 27°57' W 082°27'0 0.0
2018-Feb-16 20:59N 27°57' W 082°27'0 0.0
2018-Feb-16 20:29N 27°57' W 082°27'0 0.0
2018-Feb-16 19:59N 27°57' W 082°27'0 0.0
2018-Feb-16 19:27N 27°57' W 082°27'0 0.0
2018-Feb-16 19:00N 27°57' W 082°27'0 0.0
2018-Feb-16 18:30N 27°57' W 082°27'0 0.0
2018-Feb-16 17:57N 27°57' W 082°27'0 0.0
2018-Feb-16 17:29N 27°57' W 082°27'0 0.0
2018-Feb-16 17:00N 27°57' W 082°27'0 0.0
2018-Feb-16 16:25N 27°57' W 082°27'0 0.0
2018-Feb-16 15:58N 27°57' W 082°27'0 0.0
2018-Feb-16 15:30N 27°57' W 082°27'0 0.0
2018-Feb-16 15:00N 27°57' W 082°27'0 0.0
2018-Feb-16 14:29N 27°57' W 082°27'0 0.0
2018-Feb-16 13:59N 27°57' W 082°27'0 0.0
2018-Feb-16 13:26N 27°57' W 082°27'0 0.0
2018-Feb-16 12:58N 27°57' W 082°27'0 0.0
2018-Feb-16 12:29N 27°57' W 082°27'0 0.0
2018-Feb-16 11:59N 27°57' W 082°27'0 0.0
2018-Feb-16 11:29N 27°57' W 082°27'0 0.0
2018-Feb-16 10:59N 27°57' W 082°27'0 0.0
2018-Feb-16 10:28N 27°57' W 082°27'0 0.0
2018-Feb-16 09:58N 27°57' W 082°27'0 0.0
2018-Feb-16 09:30N 27°57' W 082°27'0 0.0
2018-Feb-16 08:59N 27°57' W 082°27'0 0.0
2018-Feb-16 08:30N 27°57' W 082°27'0 0.0
2018-Feb-16 08:00N 27°57' W 082°27'0 0.0
2018-Feb-16 07:25N 27°57' W 082°27'0 0.1
2018-Feb-16 06:57N 27°56' W 082°27'3 7.2
2018-Feb-16 06:30N 27°53' W 082°27'4 8.7
2018-Feb-16 05:59N 27°49' W 082°27'4 8.8
2018-Feb-16 05:30N 27°46' W 082°31'0 0.0
2018-Feb-15 20:04N 27°46' W 082°31'1 8.3
2018-Feb-15 19:58N 27°47' W 082°30'4 8.1
2018-Feb-15 19:26N 27°50' W 082°27'4 8.6
2018-Feb-15 19:00N 27°54' W 082°26'3 5.4
2018-Feb-15 18:29N 27°57' W 082°27'0 0.0
2018-Feb-15 17:59N 27°57' W 082°27'0 0.0
2018-Feb-15 17:25N 27°57' W 082°27'0 0.0
2018-Feb-15 16:58N 27°57' W 082°27'0 0.0
2018-Feb-15 16:29N 27°57' W 082°27'0 0.0
2018-Feb-15 15:59N 27°57' W 082°27'0 0.0
2018-Feb-15 15:29N 27°57' W 082°27'0 0.0
2018-Feb-15 14:59N 27°57' W 082°27'0 0.0
2018-Feb-15 14:28N 27°57' W 082°27'0 0.0
2018-Feb-15 13:58N 27°57' W 082°27'0 0.0
2018-Feb-15 13:28N 27°57' W 082°27'  

Dump ship's entire track history